Time;durP1;ratioP1;P1;durP2;ratioP2;P2;SDS_P1;SDS_P2;PMS_P1;PMS_P2;Temp;Humidity;BMP_temperature;BMP_pressure;BME280_temperature;BME280_humidity;BME280_pressure;Samples;Min_cycle;Max_cycle;Signal;HPM_P1;HPM_P2
2023/10/08 00:02:27;;;;;;;;;;;17.10;54.00;;;;;;5025080;28;114138;-82
2023/10/08 00:05:00;;;;;;;;;;;17.10;54.10;;;;;;5006350;28;114962;-82
2023/10/08 00:07:27;;;;;;;;;;;17.10;54.10;;;;;;5023943;28;114610;-81
2023/10/08 00:09:55;;;;;;;;;;;17.10;54.00;;;;;;5024718;28;114044;-81
2023/10/08 00:12:39;;;;;;;;;;;17.10;54.00;;;;;;5009675;28;114349;-80
2023/10/08 00:15:10;;;;;;;;;;;17.10;54.00;;;;;;5005884;28;115109;-81
2023/10/08 00:17:37;;;;;;;;;;;17.10;54.00;;;;;;5023391;28;115829;-81
2023/10/08 00:20:04;;;;;;;;;;;17.10;54.00;;;;;;5023722;28;114193;-81
2023/10/08 00:22:35;;;;;;;;;;;17.10;54.00;;;;;;5024507;28;114757;-81
2023/10/08 00:25:11;;;;;;;;;;;17.10;54.00;;;;;;5005590;28;117729;-81
2023/10/08 00:27:40;;;;;;;;;;;17.10;54.00;;;;;;5024366;28;114272;-82
2023/10/08 00:30:17;;;;;;;;;;;17.10;54.00;;;;;;5024079;28;114288;-81
2023/10/08 00:32:45;;;;;;;;;;;17.00;54.10;;;;;;5005935;28;114261;-81
2023/10/08 00:35:13;;;;;;;;;;;17.00;54.10;;;;;;5023640;28;115337;-82
2023/10/08 00:37:41;;;;;;;;;;;17.00;54.10;;;;;;5005855;28;114632;-81
2023/10/08 00:40:13;;;;;;;;;;;17.00;54.10;;;;;;5006475;28;114238;-81
2023/10/08 00:42:45;;;;;;;;;;;17.00;54.10;;;;;;5007171;28;114180;-81
2023/10/08 00:45:16;;;;;;;;;;;17.10;54.10;;;;;;5022717;28;116230;-81
2023/10/08 00:47:43;;;;;;;;;;;17.00;54.10;;;;;;5005280;28;118343;-82
2023/10/08 00:50:20;;;;;;;;;;;17.00;54.20;;;;;;5005980;28;114329;-81
2023/10/08 00:53:00;;;;;;;;;;;17.00;54.20;;;;;;5006042;28;114578;-81
2023/10/08 00:55:32;;;;;;;;;;;17.00;54.20;;;;;;4990716;28;114983;-82
2023/10/08 00:58:09;;;;;;;;;;;17.10;54.20;;;;;;5023279;28;115707;-81
2023/10/08 01:00:40;;;;;;;;;;;17.00;54.10;;;;;;5023689;28;114148;-81
2023/10/08 01:03:14;;;;;;;;;;;17.10;54.20;;;;;;5023029;28;114240;-82
2023/10/08 01:05:46;;;;;;;;;;;17.10;54.20;;;;;;5022890;28;117391;-81
2023/10/08 01:08:34;;;;;;;;;;;17.00;54.20;;;;;;5006120;28;114660;-82
2023/10/08 01:11:26;;;;;;;;;;;17.00;54.20;;;;;;5008366;28;114396;-82
2023/10/08 01:13:54;;;;;;;;;;;17.00;54.30;;;;;;5006972;28;114078;-86
2023/10/08 01:16:22;;;;;;;;;;;17.10;54.20;;;;;;5005443;28;115064;-81
2023/10/08 01:18:54;;;;;;;;;;;17.10;54.20;;;;;;5005159;28;114513;-82
2023/10/08 01:21:33;;;;;;;;;;;17.00;54.40;;;;;;5023737;28;114196;-83
2023/10/08 01:24:05;;;;;;;;;;;17.00;54.40;;;;;;5005792;28;114264;-82
2023/10/08 01:26:39;;;;;;;;;;;16.90;54.40;;;;;;5008577;28;114928;-82
2023/10/08 01:29:18;;;;;;;;;;;16.90;54.50;;;;;;5026687;28;116566;-82
2023/10/08 01:31:47;;;;;;;;;;;16.90;54.40;;;;;;5027333;28;114505;-82
2023/10/08 01:34:17;;;;;;;;;;;16.90;54.40;;;;;;5027362;28;114360;-81
2023/10/08 01:36:44;;;;;;;;;;;16.90;54.40;;;;;;5007803;28;114925;-81
2023/10/08 01:39:15;;;;;;;;;;;17.00;54.40;;;;;;5008382;28;114624;-81
2023/10/08 01:41:43;;;;;;;;;;;17.00;54.60;;;;;;5027104;28;114259;-81
2023/10/08 01:44:10;;;;;;;;;;;16.90;54.50;;;;;;4992333;28;114466;-82
2023/10/08 01:46:40;;;;;;;;;;;16.90;54.50;;;;;;5009305;27;115060;-81
2023/10/08 01:49:14;;;;;;;;;;;17.00;54.50;;;;;;5028308;27;114679;-81
2023/10/08 01:51:49;;;;;;;;;;;17.00;54.50;;;;;;5012902;27;114172;-82
2023/10/08 01:54:17;;;;;;;;;;;17.00;54.50;;;;;;5047500;27;114233;-81
2023/10/08 01:56:45;;;;;;;;;;;16.90;54.50;;;;;;5028227;27;115101;-82
2023/10/08 01:59:13;;;;;;;;;;;17.00;54.50;;;;;;5028404;27;114748;-82
2023/10/08 02:01:45;;;;;;;;;;;17.00;54.50;;;;;;4995746;27;114382;-81
2023/10/08 02:04:12;;;;;;;;;;;17.00;54.40;;;;;;5047211;27;114336;-81
2023/10/08 02:06:40;;;;;;;;;;;17.00;54.40;;;;;;5046206;27;116259;-82
2023/10/08 02:09:10;;;;;;;;;;;17.10;54.30;;;;;;5046145;27;114552;-82
2023/10/08 02:11:43;;;;;;;;;;;17.10;54.30;;;;;;5028292;27;114099;-82
2023/10/08 02:14:11;;;;;;;;;;;17.10;54.20;;;;;;4994962;27;114690;-81
2023/10/08 02:16:39;;;;;;;;;;;17.10;54.20;;;;;;5045831;27;114958;-80
2023/10/08 02:19:06;;;;;;;;;;;17.10;54.30;;;;;;5028331;27;114858;-82
2023/10/08 02:21:33;;;;;;;;;;;17.00;54.30;;;;;;5028045;27;114401;-82
2023/10/08 02:24:03;;;;;;;;;;;17.00;54.30;;;;;;5046805;27;114339;-82
2023/10/08 02:26:30;;;;;;;;;;;17.10;54.40;;;;;;5045180;27;115988;-81
2023/10/08 02:28:59;;;;;;;;;;;17.10;54.40;;;;;;5027994;27;114558;-81
2023/10/08 02:31:27;;;;;;;;;;;17.10;54.30;;;;;;5046602;27;114150;-82
2023/10/08 02:33:55;;;;;;;;;;;17.10;54.30;;;;;;4995318;27;114375;-81
2023/10/08 02:36:22;;;;;;;;;;;17.10;54.30;;;;;;5045719;27;114880;-81
2023/10/08 02:38:49;;;;;;;;;;;17.00;54.40;;;;;;5027781;27;114703;-81
2023/10/08 02:41:17;;;;;;;;;;;17.00;54.30;;;;;;5046587;27;114112;-82
2023/10/08 02:43:45;;;;;;;;;;;17.00;54.40;;;;;;5012244;27;114354;-81
2023/10/08 02:46:15;;;;;;;;;;;17.00;54.40;;;;;;5009709;27;116977;-81
2023/10/08 02:48:42;;;;;;;;;;;17.10;54.40;;;;;;5045658;27;114773;-82
2023/10/08 02:51:15;;;;;;;;;;;17.10;54.40;;;;;;5045806;27;114382;-81
2023/10/08 02:53:43;;;;;;;;;;;17.10;54.30;;;;;;5046348;27;114174;-81
2023/10/08 02:56:14;;;;;;;;;;;17.10;54.30;;;;;;5027295;27;114654;-82
2023/10/08 02:58:43;;;;;;;;;;;17.10;54.30;;;;;;5045055;27;115155;-82
2023/10/08 03:01:12;;;;;;;;;;;17.10;54.40;;;;;;5011077;27;114491;-82
2023/10/08 03:03:40;;;;;;;;;;;17.00;54.40;;;;;;5027833;27;114280;-82
2023/10/08 03:06:11;;;;;;;;;;;17.10;54.50;;;;;;5027020;27;115032;-82
2023/10/08 03:08:41;;;;;;;;;;;17.10;54.50;;;;;;5028180;27;114583;-81
2023/10/08 03:11:17;;;;;;;;;;;17.10;54.50;;;;;;5027722;27;114161;-81
2023/10/08 03:13:46;;;;;;;;;;;17.20;54.50;;;;;;5045944;27;114357;-81
2023/10/08 03:16:14;;;;;;;;;;;17.20;54.50;;;;;;5026281;27;114833;-82
2023/10/08 03:18:43;;;;;;;;;;;17.20;54.70;;;;;;5027360;27;114640;-82
2023/10/08 03:21:43;;;;;;;;;;;17.20;54.50;;;;;;5027284;27;114847;-82
2023/10/08 03:24:12;;;;;;;;;;;17.10;54.50;;;;;;5015612;27;114349;-82
2023/10/08 03:26:40;;;;;;;;;;;17.10;54.50;;;;;;5045049;27;114793;-81
2023/10/08 03:29:07;;;;;;;;;;;17.20;54.50;;;;;;5044831;27;115976;-82
2023/10/08 03:31:49;;;;;;;;;;;17.20;54.50;;;;;;5045560;27;114286;-82
2023/10/08 03:34:19;;;;;;;;;;;17.30;54.40;;;;;;5027506;27;114256;-80
2023/10/08 03:36:47;;;;;;;;;;;17.30;54.40;;;;;;5026716;27;115022;-81
2023/10/08 03:39:14;;;;;;;;;;;17.30;54.50;;;;;;5044847;27;114966;-81
2023/10/08 03:41:41;;;;;;;;;;;17.20;54.80;;;;;;5045023;27;114284;-81
2023/10/08 03:44:16;;;;;;;;;;;17.10;55.10;;;;;;5027443;27;114289;-81
2023/10/08 03:46:46;;;;;;;;;;;16.90;56.10;;;;;;5044250;27;115059;-81
2023/10/08 03:51:52;;;;;;;;;;;16.60;57.60;;;;;;5045136;27;114329;-81
2023/10/08 03:54:29;;;;;;;;;;;16.40;58.30;;;;;;5045330;27;114249;-81
2023/10/08 03:56:57;;;;;;;;;;;16.30;59.10;;;;;;5044437;27;115344;-82
2023/10/08 03:59:34;;;;;;;;;;;16.10;59.70;;;;;;5026882;27;114635;-82
2023/10/08 04:02:14;;;;;;;;;;;15.90;59.30;;;;;;5044949;27;114274;-82
2023/10/08 04:04:53;;;;;;;;;;;15.70;59.20;;;;;;5045139;27;114323;-81
2023/10/08 04:12:39;;;;;;;;;;;15.00;59.50;;;;;;5045250;27;114152;-81
2023/10/08 04:15:12;;;;;;;;;;;14.80;59.70;;;;;;5027994;27;114357;-81
2023/10/08 04:17:45;;;;;;;;;;;14.70;59.70;;;;;;5044168;27;114916;-82
2023/10/08 04:20:33;;;;;;;;;;;14.70;59.90;;;;;;5043876;27;115997;-81
2023/10/08 04:23:01;;;;;;;;;;;14.70;59.70;;;;;;5045171;27;114189;-80
2023/10/08 04:25:29;;;;;;;;;;;14.80;59.60;;;;;;5045478;27;114329;-81
2023/10/08 04:27:58;;;;;;;;;;;14.70;59.60;;;;;;5044123;27;115397;-81
2023/10/08 04:30:32;;;;;;;;;;;14.70;59.70;;;;;;5026116;27;114643;-82
2023/10/08 04:33:06;;;;;;;;;;;14.60;59.70;;;;;;5027354;27;114400;-81
2023/10/08 04:35:36;;;;;;;;;;;14.50;60.00;;;;;;5044807;27;114054;-82
2023/10/08 04:38:04;;;;;;;;;;;14.30;60.20;;;;;;5009698;27;115236;-82
2023/10/08 04:40:39;;;;;;;;;;;14.20;60.60;;;;;;5026224;27;114612;-82
2023/10/08 04:43:10;;;;;;;;;;;14.20;60.80;;;;;;5044748;27;114353;-81
2023/10/08 04:45:37;;;;;;;;;;;14.20;60.60;;;;;;5044829;27;114195;-82
2023/10/08 04:48:10;;;;;;;;;;;14.20;60.80;;;;;;5025693;27;114820;-82
2023/10/08 04:50:38;;;;;;;;;;;14.20;60.60;;;;;;5044243;27;114580;-82
2023/10/08 04:53:07;;;;;;;;;;;14.20;60.50;;;;;;5026379;27;114216;-81
2023/10/08 04:55:35;;;;;;;;;;;14.20;60.60;;;;;;5044612;27;114309;-81
2023/10/08 04:58:12;;;;;;;;;;;14.20;60.60;;;;;;5025311;27;114874;-82
2023/10/08 05:00:43;;;;;;;;;;;14.30;60.50;;;;;;5042986;27;114636;-80
2023/10/08 05:03:16;;;;;;;;;;;14.20;60.50;;;;;;5026387;27;114124;-82
2023/10/08 05:06:07;;;;;;;;;;;14.30;60.40;;;;;;5044944;27;114270;-82
2023/10/08 05:08:47;;;;;;;;;;;14.30;60.50;;;;;;5043349;27;116100;-82
2023/10/08 05:11:24;;;;;;;;;;;14.20;60.50;;;;;;5027520;27;114608;-81
2023/10/08 05:14:16;;;;;;;;;;;14.20;60.60;;;;;;5044426;27;114040;-82
2023/10/08 05:16:44;;;;;;;;;;;14.00;60.50;;;;;;5030137;27;114314;-81
2023/10/08 05:19:26;;;;;;;;;;;13.90;60.70;;;;;;5043772;27;115737;-80
2023/10/08 05:22:05;;;;;;;;;;;13.90;60.80;;;;;;5042439;27;115764;-80
2023/10/08 05:24:38;;;;;;;;;;;13.80;61.00;;;;;;5043590;27;114303;-82
2023/10/08 05:27:37;;;;;;;;;;;13.80;61.10;;;;;;5043997;27;114354;-82
2023/10/08 05:30:15;;;;;;;;;;;13.80;61.00;;;;;;5028199;27;115080;-81
2023/10/08 05:38:15;;;;;;;;;;;14.20;60.70;;;;;;5043883;27;114397;-81
2023/10/08 05:54:57;;;;;;;;;;;14.60;59.80;;;;;;5042921;27;114674;-82
2023/10/08 05:57:07;;;;;;;;;;;14.50;59.70;;;;;;5043458;27;114253;-82
2023/10/08 06:03:00;;;;;;;;;;;14.50;59.90;;;;;;5023968;27;115409;-82
2023/10/08 06:13:09;;;;;;;;;;;14.50;59.20;;;;;;5045671;27;117192;-82
2023/10/08 06:15:48;;;;;;;;;;;14.50;59.40;;;;;;5046064;27;114668;-82
2023/10/08 06:18:17;;;;;;;;;;;14.50;59.30;;;;;;5029925;27;114390;-83
2023/10/08 06:20:45;;;;;;;;;;;14.60;59.30;;;;;;5011415;27;114378;-81
2023/10/08 06:23:17;;;;;;;;;;;14.70;59.10;;;;;;5027219;27;115323;-82
2023/10/08 06:25:46;;;;;;;;;;;14.70;59.10;;;;;;5045973;27;114659;-82
2023/10/08 06:28:13;;;;;;;;;;;14.80;59.00;;;;;;5028489;27;114370;-82
2023/10/08 06:30:41;;;;;;;;;;;14.80;59.00;;;;;;5046571;27;114191;-81
2023/10/08 06:33:13;;;;;;;;;;;14.90;58.60;;;;;;5028455;27;114859;-80
2023/10/08 06:35:44;;;;;;;;;;;14.80;58.50;;;;;;5027861;27;115939;-82
2023/10/08 06:38:14;;;;;;;;;;;14.80;58.60;;;;;;5046448;27;114126;-82
2023/10/08 06:40:42;;;;;;;;;;;14.80;58.60;;;;;;5046563;27;114289;-81
2023/10/08 06:43:16;;;;;;;;;;;14.90;58.60;;;;;;5044946;27;114974;-82
2023/10/08 06:45:44;;;;;;;;;;;14.90;58.40;;;;;;5045824;27;115163;-82
2023/10/08 06:48:18;;;;;;;;;;;14.80;58.20;;;;;;5047681;27;114355;-82
2023/10/08 06:50:46;;;;;;;;;;;14.80;58.30;;;;;;5030341;27;114201;-82
2023/10/08 06:53:17;;;;;;;;;;;14.80;58.30;;;;;;5027760;27;115086;-83
2023/10/08 06:55:47;;;;;;;;;;;14.80;58.30;;;;;;5011601;27;115340;-82
2023/10/08 06:58:15;;;;;;;;;;;14.80;58.00;;;;;;5046079;27;114300;-82
2023/10/08 07:00:48;;;;;;;;;;;14.80;58.00;;;;;;5011676;27;114168;-82
2023/10/08 07:03:17;;;;;;;;;;;14.60;57.90;;;;;;5045521;27;114905;-82
2023/10/08 07:05:54;;;;;;;;;;;14.50;58.00;;;;;;5045543;27;115052;-82
2023/10/08 07:08:23;;;;;;;;;;;14.60;58.20;;;;;;5045732;27;114350;-81
2023/10/08 07:10:50;;;;;;;;;;;14.50;58.10;;;;;;5046201;27;114387;-82
2023/10/08 07:13:19;;;;;;;;;;;14.50;57.90;;;;;;5044719;27;115484;-82
2023/10/08 07:15:46;;;;;;;;;;;14.40;58.20;;;;;;5027032;27;117126;-81
2023/10/08 07:18:14;;;;;;;;;;;14.60;58.30;;;;;;5045622;27;114479;-81
2023/10/08 07:20:45;;;;;;;;;;;14.70;58.20;;;;;;5011202;27;114369;-82
2023/10/08 07:23:19;;;;;;;;;;;14.70;58.10;;;;;;5025969;27;116106;-82
2023/10/08 07:25:51;;;;;;;;;;;14.70;57.80;;;;;;5045395;27;114563;-82
2023/10/08 07:28:19;;;;;;;;;;;14.80;58.20;;;;;;5027480;27;114218;-82
2023/10/08 07:30:48;;;;;;;;;;;14.90;58.40;;;;;;5010971;27;114368;-82
2023/10/08 07:33:18;;;;;;;;;;;15.10;58.20;;;;;;5044431;27;115135;-83
2023/10/08 07:35:57;;;;;;;;;;;15.20;57.90;;;;;;5046529;27;114546;-81
2023/10/08 07:38:28;;;;;;;;;;;15.20;57.70;;;;;;5013040;27;114278;-81
2023/10/08 07:40:56;;;;;;;;;;;15.10;57.70;;;;;;5027220;27;114317;-82
2023/10/08 07:43:22;;;;;;;;;;;15.20;57.80;;;;;;5044908;27;115101;-82
2023/10/08 07:45:53;;;;;;;;;;;15.20;57.90;;;;;;5044746;27;114716;-82
2023/10/08 07:48:22;;;;;;;;;;;15.30;57.90;;;;;;5045440;27;114414;-82
2023/10/08 07:50:50;;;;;;;;;;;15.50;57.60;;;;;;5045334;27;114298;-81
2023/10/08 07:53:18;;;;;;;;;;;15.40;57.10;;;;;;5044509;27;114877;-82
2023/10/08 07:55:46;;;;;;;;;;;15.30;57.00;;;;;;5009303;27;116923;-82
2023/10/08 07:58:14;;;;;;;;;;;15.10;57.10;;;;;;5026837;27;114374;-81
2023/10/08 08:00:51;;;;;;;;;;;15.10;57.10;;;;;;5045211;27;114148;-83
2023/10/08 08:03:18;;;;;;;;;;;15.00;57.30;;;;;;5044197;27;116667;-81
2023/10/08 08:05:46;;;;;;;;;;;15.10;57.20;;;;;;5044520;27;114603;-81
2023/10/08 08:08:17;;;;;;;;;;;15.10;57.20;;;;;;5045058;27;114134;-82
2023/10/08 08:10:44;;;;;;;;;;;15.20;57.30;;;;;;5045047;27;114264;-81
2023/10/08 08:13:11;;;;;;;;;;;15.20;57.40;;;;;;5043819;27;116149;-81
2023/10/08 08:15:42;;;;;;;;;;;15.20;57.50;;;;;;5044182;27;116023;-82
2023/10/08 08:18:22;;;;;;;;;;;15.20;57.00;;;;;;5044535;27;114343;-81
2023/10/08 08:20:49;;;;;;;;;;;15.30;57.30;;;;;;5026521;27;114564;-82
2023/10/08 08:23:16;;;;;;;;;;;15.30;57.10;;;;;;5043352;27;115147;-82
2023/10/08 08:25:55;;;;;;;;;;;15.40;57.10;;;;;;5026047;27;115118;-81
2023/10/08 08:28:24;;;;;;;;;;;15.40;57.20;;;;;;5026225;27;114513;-83
2023/10/08 08:30:57;;;;;;;;;;;15.30;56.80;;;;;;5010150;27;114482;-82
2023/10/08 08:33:35;;;;;;;;;;;15.30;56.70;;;;;;5046325;27;115591;-81
2023/10/08 08:36:05;;;;;;;;;;;15.30;56.80;;;;;;5044992;27;114629;-82
2023/10/08 08:38:32;;;;;;;;;;;15.30;56.90;;;;;;5026453;27;114414;-83
2023/10/08 08:41:06;;;;;;;;;;;15.30;56.80;;;;;;5044979;27;114079;-83
2023/10/08 08:43:34;;;;;;;;;;;15.30;56.90;;;;;;5043934;27;114970;-82
2023/10/08 08:46:06;;;;;;;;;;;15.30;57.00;;;;;;5043740;27;114603;-82
2023/10/08 08:48:35;;;;;;;;;;;15.40;57.00;;;;;;5026406;27;114140;-83
2023/10/08 08:51:02;;;;;;;;;;;15.50;56.90;;;;;;5010056;27;114103;-82
2023/10/08 08:53:29;;;;;;;;;;;15.60;56.80;;;;;;5043736;27;115199;-82
2023/10/08 08:56:00;;;;;;;;;;;15.60;56.60;;;;;;5025527;27;115231;-82
2023/10/08 08:58:32;;;;;;;;;;;15.60;56.80;;;;;;5010005;27;114426;-82
2023/10/08 09:00:59;;;;;;;;;;;15.70;56.80;;;;;;5009717;27;114109;-82
2023/10/08 09:03:32;;;;;;;;;;;15.80;56.60;;;;;;5043799;27;115068;-82
2023/10/08 09:06:04;;;;;;;;;;;15.80;56.30;;;;;;5043972;27;115180;-83
2023/10/08 09:08:35;;;;;;;;;;;15.70;55.90;;;;;;5009973;27;114480;-82
2023/10/08 09:11:04;;;;;;;;;;;15.50;55.70;;;;;;5026234;27;114323;-82
2023/10/08 09:13:31;;;;;;;;;;;15.40;56.20;;;;;;5042881;27;115215;-82
2023/10/08 09:16:03;;;;;;;;;;;15.50;56.40;;;;;;5008680;27;115933;-83
2023/10/08 09:18:32;;;;;;;;;;;15.50;56.10;;;;;;5025956;27;114293;-82
2023/10/08 09:21:10;;;;;;;;;;;15.40;55.60;;;;;;5008733;27;114382;-81
2023/10/08 09:23:43;;;;;;;;;;;15.30;55.70;;;;;;5008033;27;118059;-82
2023/10/08 09:26:10;;;;;;;;;;;15.10;55.80;;;;;;5025518;27;114704;-82
2023/10/08 09:28:38;;;;;;;;;;;15.10;56.10;;;;;;5009175;27;114456;-82
2023/10/08 09:31:06;;;;;;;;;;;15.00;56.00;;;;;;5009495;27;114622;-83
2023/10/08 09:33:33;;;;;;;;;;;15.00;55.90;;;;;;5025260;27;115150;-81
2023/10/08 09:36:02;;;;;;;;;;;15.00;56.20;;;;;;5008379;27;114846;-82
2023/10/08 09:38:30;;;;;;;;;;;15.00;56.10;;;;;;4992233;27;114493;-83
2023/10/08 09:40:57;;;;;;;;;;;15.00;56.20;;;;;;5043735;27;114145;-83
2023/10/08 09:43:24;;;;;;;;;;;15.20;56.40;;;;;;5024949;27;115668;-81
2023/10/08 09:45:53;;;;;;;;;;;15.30;56.30;;;;;;5026568;27;114770;-81
2023/10/08 09:48:20;;;;;;;;;;;15.40;56.00;;;;;;5047335;27;114477;-81
2023/10/08 09:50:47;;;;;;;;;;;15.50;55.80;;;;;;5029178;27;114377;-82
2023/10/08 09:53:19;;;;;;;;;;;15.70;55.80;;;;;;5028313;27;114969;-82
2023/10/08 09:55:54;;;;;;;;;;;15.70;55.10;;;;;;5046867;27;115106;-80
2023/10/08 09:58:25;;;;;;;;;;;15.70;55.20;;;;;;5012171;27;114271;-82
2023/10/08 10:00:53;;;;;;;;;;;15.70;55.10;;;;;;5029220;27;114257;-82
2023/10/08 10:03:26;;;;;;;;;;;15.70;54.70;;;;;;5028151;27;116069;-82
2023/10/08 10:05:58;;;;;;;;;;;15.70;54.60;;;;;;4995097;27;115443;-81
2023/10/08 10:08:28;;;;;;;;;;;15.60;53.90;;;;;;5028831;27;114115;-82
2023/10/08 10:10:59;;;;;;;;;;;15.40;54.40;;;;;;5029012;27;114428;-82
2023/10/08 10:13:29;;;;;;;;;;;15.50;54.60;;;;;;5046146;27;115207;-81
2023/10/08 10:15:57;;;;;;;;;;;15.50;54.20;;;;;;5028275;27;114382;-81
2023/10/08 10:18:25;;;;;;;;;;;15.40;53.80;;;;;;5046789;27;114312;-81
2023/10/08 10:21:13;;;;;;;;;;;15.30;54.10;;;;;;5048228;27;114519;-81
2023/10/08 10:23:43;;;;;;;;;;;15.30;53.90;;;;;;5030868;27;116322;-81
2023/10/08 10:26:26;;;;;;;;;;;15.30;54.20;;;;;;5046240;27;115058;-81
2023/10/08 10:29:09;;;;;;;;;;;15.30;54.10;;;;;;5046394;27;114126;-82
2023/10/08 10:31:37;;;;;;;;;;;15.50;53.50;;;;;;5046922;27;114408;-82
2023/10/08 10:34:05;;;;;;;;;;;15.50;53.60;;;;;;5010929;27;116206;-82
2023/10/08 10:36:32;;;;;;;;;;;15.50;52.90;;;;;;5027725;27;115214;-82
2023/10/08 10:38:59;;;;;;;;;;;15.40;52.70;;;;;;5012116;27;114539;-81
2023/10/08 10:41:27;;;;;;;;;;;15.30;53.00;;;;;;5046719;27;114148;-82
2023/10/08 10:43:54;;;;;;;;;;;15.30;52.60;;;;;;5046138;27;115151;-82
2023/10/08 10:46:29;;;;;;;;;;;15.30;52.80;;;;;;5046404;27;114798;-82
2023/10/08 10:51:42;;;;;;;;;;;15.40;52.80;;;;;;5046438;27;114349;-81
2023/10/08 10:54:19;;;;;;;;;;;15.60;52.40;;;;;;5026626;27;117742;-81
2023/10/08 10:56:47;;;;;;;;;;;15.60;52.50;;;;;;5044649;27;114811;-82
2023/10/08 10:59:26;;;;;;;;;;;15.70;51.40;;;;;;5027915;27;114150;-80
2023/10/08 11:02:20;;;;;;;;;;;15.60;51.30;;;;;;5028148;27;114146;-83
2023/10/08 11:04:48;;;;;;;;;;;15.60;51.10;;;;;;5031607;27;114952;-82
2023/10/08 11:07:20;;;;;;;;;;;15.50;50.80;;;;;;5045635;27;114612;-80
2023/10/08 11:09:47;;;;;;;;;;;15.30;49.80;;;;;;5027802;27;114192;-81
2023/10/08 11:12:18;;;;;;;;;;;15.00;50.40;;;;;;5046584;27;114213;-80
2023/10/08 11:14:46;;;;;;;;;;;14.90;50.50;;;;;;5027791;27;115614;-83
2023/10/08 11:17:16;;;;;;;;;;;14.80;50.70;;;;;;5044825;27;114596;-82
2023/10/08 11:19:45;;;;;;;;;;;14.70;50.40;;;;;;5045498;27;114051;-82
2023/10/08 11:22:16;;;;;;;;;;;14.70;49.30;;;;;;5045133;27;114452;-81
2023/10/08 11:24:47;;;;;;;;;;;14.50;49.00;;;;;;5045022;27;114789;-81
2023/10/08 11:27:16;;;;;;;;;;;14.60;49.70;;;;;;5044924;27;114654;-81
2023/10/08 11:29:43;;;;;;;;;;;14.70;48.80;;;;;;5046052;27;114163;-81
2023/10/08 11:32:12;;;;;;;;;;;14.70;48.80;;;;;;5028199;27;114364;-82
2023/10/08 11:34:39;;;;;;;;;;;14.80;48.70;;;;;;5027549;27;114981;-83
2023/10/08 11:37:21;;;;;;;;;;;14.80;48.10;;;;;;5026710;27;116544;-82
2023/10/08 11:39:49;;;;;;;;;;;14.70;47.00;;;;;;5045228;27;114490;-83
2023/10/08 11:44:55;;;;;;;;;;;14.70;47.50;;;;;;5044315;27;115105;-81
2023/10/08 11:47:22;;;;;;;;;;;14.80;46.90;;;;;;5045298;27;115506;-82
2023/10/08 11:50:08;;;;;;;;;;;14.80;44.90;;;;;;5045936;27;114100;-82
2023/10/08 11:52:41;;;;;;;;;;;14.70;44.90;;;;;;5045583;27;114529;-83
2023/10/08 11:55:09;;;;;;;;;;;14.70;46.00;;;;;;5044306;27;116187;-82
2023/10/08 11:57:45;;;;;;;;;;;14.80;45.80;;;;;;5026079;27;116441;-83
2023/10/08 12:00:18;;;;;;;;;;;14.80;45.30;;;;;;5045200;27;114308;-81
2023/10/08 12:03:01;;;;;;;;;;;14.90;44.50;;;;;;5029239;27;114507;-81
2023/10/08 12:05:29;;;;;;;;;;;14.70;43.30;;;;;;5026444;27;115354;-81
2023/10/08 12:07:57;;;;;;;;;;;14.60;43.30;;;;;;5009736;27;114872;-82
2023/10/08 12:10:25;;;;;;;;;;;14.60;44.60;;;;;;5026927;27;114268;-81
2023/10/08 12:12:52;;;;;;;;;;;14.70;44.50;;;;;;5027043;27;114474;-83
2023/10/08 12:15:20;;;;;;;;;;;14.80;44.10;;;;;;5026146;27;115322;-82
2023/10/08 12:18:08;;;;;;;;;;;14.70;45.00;;;;;;5043988;27;114686;-80
2023/10/08 12:20:37;;;;;;;;;;;14.80;45.00;;;;;;5044547;27;114587;-83
2023/10/08 12:23:04;;;;;;;;;;;14.80;44.90;;;;;;5044651;27;114450;-83
2023/10/08 12:25:32;;;;;;;;;;;14.80;44.80;;;;;;5008512;27;117240;-83
2023/10/08 12:28:03;;;;;;;;;;;15.00;45.30;;;;;;5044391;27;114846;-81
2023/10/08 12:30:34;;;;;;;;;;;15.20;45.90;;;;;;5044725;27;114236;-81
2023/10/08 12:33:02;;;;;;;;;;;15.30;45.70;;;;;;5026606;27;114323;-82
2023/10/08 12:35:29;;;;;;;;;;;15.40;45.10;;;;;;5025546;27;115679;-82
2023/10/08 12:37:56;;;;;;;;;;;15.50;44.40;;;;;;5044001;27;114588;-81
2023/10/08 12:40:24;;;;;;;;;;;15.30;43.70;;;;;;5026725;27;114172;-82
2023/10/08 12:42:51;;;;;;;;;;;15.30;43.80;;;;;;4993688;27;114180;-82
2023/10/08 12:45:21;;;;;;;;;;;15.30;43.50;;;;;;5025528;27;115536;-82
2023/10/08 12:47:49;;;;;;;;;;;15.20;42.60;;;;;;5043683;27;115345;-82
2023/10/08 12:50:17;;;;;;;;;;;15.00;43.90;;;;;;5044490;27;114407;-82
2023/10/08 12:52:52;;;;;;;;;;;15.20;43.80;;;;;;5044526;27;114206;-82
2023/10/08 12:55:23;;;;;;;;;;;15.20;43.50;;;;;;5043613;27;115599;-82
2023/10/08 12:57:55;;;;;;;;;;;15.30;43.70;;;;;;5010706;27;114765;-82
2023/10/08 13:00:23;;;;;;;;;;;15.30;43.80;;;;;;5009390;27;114375;-81
2023/10/08 13:02:53;;;;;;;;;;;15.40;43.00;;;;;;5025989;27;114439;-82
2023/10/08 13:05:26;;;;;;;;;;;15.30;42.00;;;;;;5025792;27;117871;-82
2023/10/08 13:07:57;;;;;;;;;;;15.10;42.30;;;;;;5025614;27;118640;-81
2023/10/08 13:10:25;;;;;;;;;;;15.10;42.60;;;;;;5026701;27;114317;-82
2023/10/08 13:12:52;;;;;;;;;;;15.00;41.60;;;;;;5026357;27;114209;-82
2023/10/08 13:15:19;;;;;;;;;;;14.90;41.90;;;;;;5025656;27;116263;-81
2023/10/08 13:17:48;;;;;;;;;;;14.90;42.60;;;;;;5026007;27;114747;-82
2023/10/08 13:20:17;;;;;;;;;;;14.90;41.50;;;;;;5045004;27;114249;-82
2023/10/08 13:22:44;;;;;;;;;;;14.80;41.70;;;;;;5048044;27;114421;-81
2023/10/08 13:25:12;;;;;;;;;;;14.80;42.40;;;;;;5046462;27;115386;-82
2023/10/08 13:27:39;;;;;;;;;;;14.90;42.50;;;;;;5046828;27;115521;-82
2023/10/08 13:30:08;;;;;;;;;;;14.90;42.10;;;;;;5029495;27;114424;-82
2023/10/08 13:32:36;;;;;;;;;;;14.90;41.70;;;;;;5047665;27;114415;-81
2023/10/08 13:35:04;;;;;;;;;;;14.90;42.10;;;;;;5028267;27;116021;-82
2023/10/08 13:37:32;;;;;;;;;;;14.80;42.10;;;;;;5028123;27;116494;-84
2023/10/08 13:39:59;;;;;;;;;;;14.80;42.60;;;;;;5047406;27;114204;-81
2023/10/08 13:42:27;;;;;;;;;;;14.90;42.60;;;;;;5047806;27;114290;-81
2023/10/08 13:44:54;;;;;;;;;;;15.00;42.50;;;;;;5046728;27;114930;-82
2023/10/08 13:47:25;;;;;;;;;;;15.00;41.90;;;;;;5012227;27;114532;-82
2023/10/08 13:49:53;;;;;;;;;;;14.90;41.70;;;;;;5046865;27;114285;-82
2023/10/08 13:52:26;;;;;;;;;;;14.80;41.90;;;;;;5047847;27;114301;-82
2023/10/08 13:54:53;;;;;;;;;;;14.80;42.50;;;;;;5046548;27;114878;-82
2023/10/08 13:57:20;;;;;;;;;;;14.90;42.10;;;;;;5046661;27;114792;-81
2023/10/08 13:59:47;;;;;;;;;;;14.90;42.20;;;;;;5047018;27;114518;-80
2023/10/08 14:02:15;;;;;;;;;;;14.90;42.20;;;;;;5047257;27;114199;-81
2023/10/08 14:04:43;;;;;;;;;;;14.80;42.00;;;;;;5028037;27;117895;-81
2023/10/08 14:07:11;;;;;;;;;;;14.80;42.40;;;;;;5046653;27;115030;-82
2023/10/08 14:09:41;;;;;;;;;;;14.90;42.30;;;;;;5029283;27;114439;-82
2023/10/08 14:12:10;;;;;;;;;;;14.80;41.90;;;;;;5047543;27;114265;-83
2023/10/08 14:14:43;;;;;;;;;;;14.90;42.60;;;;;;5027937;27;114923;-81
2023/10/08 14:17:14;;;;;;;;;;;15.00;43.00;;;;;;5028255;27;114759;-81
2023/10/08 14:19:51;;;;;;;;;;;15.00;41.30;;;;;;5046631;27;114169;-83
2023/10/08 14:22:21;;;;;;;;;;;14.80;41.30;;;;;;4995623;27;114444;-82
2023/10/08 14:24:58;;;;;;;;;;;14.70;40.80;;;;;;5011333;27;117735;-82
2023/10/08 14:27:31;;;;;;;;;;;14.60;41.00;;;;;;5027756;27;117563;-81
2023/10/08 14:30:04;;;;;;;;;;;14.50;41.10;;;;;;5046691;27;114525;-80
2023/10/08 14:32:32;;;;;;;;;;;14.50;41.00;;;;;;5013087;27;114300;-80
2023/10/08 14:43:20;;;;;;;;;;;14.50;42.20;;;;;;5046644;27;114351;-81
2023/10/08 14:45:47;;;;;;;;;;;14.70;42.10;;;;;;5046074;27;115306;-81
2023/10/08 14:48:14;;;;;;;;;;;14.70;42.50;;;;;;5027749;27;114537;-81
2023/10/08 14:50:41;;;;;;;;;;;14.80;42.00;;;;;;5028696;27;114544;-80
2023/10/08 14:53:10;;;;;;;;;;;14.80;41.60;;;;;;5046935;27;114116;-82
2023/10/08 14:55:38;;;;;;;;;;;14.70;41.60;;;;;;5045377;27;116453;-81
2023/10/08 14:58:08;;;;;;;;;;;14.70;40.90;;;;;;5045769;27;115809;-82
2023/10/08 15:00:36;;;;;;;;;;;14.50;41.20;;;;;;5029014;27;114525;-82
2023/10/08 15:03:03;;;;;;;;;;;14.50;41.60;;;;;;5028272;27;114315;-81
2023/10/08 15:05:31;;;;;;;;;;;14.60;41.80;;;;;;5027348;27;114982;-81
2023/10/08 15:07:58;;;;;;;;;;;14.60;40.90;;;;;;5044516;27;115504;-81
2023/10/08 15:10:25;;;;;;;;;;;14.50;41.10;;;;;;5028052;27;114261;-80
2023/10/08 15:12:53;;;;;;;;;;;14.40;40.90;;;;;;5028687;27;114602;-82
2023/10/08 15:15:24;;;;;;;;;;;14.30;41.10;;;;;;5046115;27;114981;-82
2023/10/08 15:17:52;;;;;;;;;;;14.20;40.90;;;;;;5045383;27;115261;-81